createdAt,value
2022-12-22T00:01:29.017Z,1.05
2022-12-22T00:04:28.804Z,1.1
2022-12-22T00:07:28.875Z,1.15
2022-12-22T00:10:28.811Z,1.2
2022-12-22T00:13:28.820Z,1.4
2022-12-22T00:16:28.948Z,0.85
2022-12-22T00:19:28.736Z,1.05
2022-12-22T00:22:28.915Z,1.15
2022-12-22T00:25:28.893Z,1.6
2022-12-22T00:28:28.878Z,1.15
2022-12-22T00:31:29.008Z,0.9
2022-12-22T00:34:33.456Z,1.2
2022-12-22T00:37:28.829Z,2.15
2022-12-22T00:40:28.827Z,1.75
2022-12-22T00:43:28.798Z,1.95
2022-12-22T00:46:28.900Z,2
2022-12-22T00:49:28.857Z,1.05
2022-12-22T00:52:28.841Z,1.55
2022-12-22T00:55:28.815Z,1.4
2022-12-22T00:58:28.915Z,1.5
2022-12-22T01:01:29.256Z,1.25
2022-12-22T01:04:29.807Z,1.45
2022-12-22T01:07:28.889Z,2
2022-12-22T01:10:28.801Z,1.45
2022-12-22T01:13:28.874Z,1.55
2022-12-22T01:16:29.170Z,1.35
2022-12-22T01:19:28.912Z,1.5
2022-12-22T01:22:28.789Z,1
2022-12-22T01:25:28.953Z,1.2
2022-12-22T01:28:28.900Z,1.35
2022-12-22T01:31:29.049Z,1.5
2022-12-22T01:34:28.945Z,1.55
2022-12-22T01:37:28.967Z,1.15
2022-12-22T01:40:28.904Z,1.85
2022-12-22T01:43:28.896Z,1.2
2022-12-22T01:46:29.078Z,1
2022-12-22T01:49:28.896Z,0.75
2022-12-22T01:52:28.962Z,0.9
2022-12-22T01:55:28.913Z,0.45
2022-12-22T01:58:28.892Z,1.2
2022-12-22T02:01:29.129Z,0.7
2022-12-22T02:04:28.883Z,0.7
2022-12-22T02:07:29.007Z,1.35
2022-12-22T02:10:29.057Z,1.65
2022-12-22T02:13:28.921Z,1.85
2022-12-22T02:16:29.020Z,1.05
2022-12-22T02:19:29.066Z,1.15
2022-12-22T02:22:28.922Z,0.6
2022-12-22T02:25:29.018Z,0.95
2022-12-22T02:28:28.928Z,0.85
2022-12-22T02:31:29.068Z,0.75
2022-12-22T02:34:28.889Z,1.2
2022-12-22T02:37:29.187Z,1.15
2022-12-22T02:40:28.853Z,1.05
2022-12-22T02:43:28.968Z,1
2022-12-22T02:46:29.055Z,0.9
2022-12-22T02:49:29.123Z,1
2022-12-22T02:52:30.070Z,0.9
2022-12-22T02:55:29.215Z,0.7
2022-12-22T02:58:29.032Z,0.65
2022-12-22T03:01:29.098Z,1
2022-12-22T03:04:29.204Z,1.05
2022-12-22T03:07:28.897Z,1.05
2022-12-22T03:10:29.013Z,1
2022-12-22T03:13:29.072Z,0.8
2022-12-22T03:16:29.032Z,0.75
2022-12-22T03:19:28.968Z,0.85
2022-12-22T03:22:28.932Z,1.15
2022-12-22T03:25:29.042Z,0.85
2022-12-22T03:28:29.115Z,0.8
2022-12-22T03:31:29.050Z,1.4
2022-12-22T03:34:29.218Z,1.3
2022-12-22T03:37:28.997Z,1.65
2022-12-22T03:40:28.993Z,1.2
2022-12-22T03:43:29.049Z,1.4
2022-12-22T03:46:29.100Z,0.8
2022-12-22T03:49:29.049Z,1.1
2022-12-22T03:52:29.065Z,0.65
2022-12-22T03:55:29.027Z,0.8
2022-12-22T03:58:29.075Z,1.5
2022-12-22T04:01:29.351Z,1.4
2022-12-22T04:04:29.100Z,1.15
2022-12-22T04:07:29.068Z,1.15
2022-12-22T04:10:28.953Z,0.95
2022-12-22T04:13:29.037Z,1.55
2022-12-22T04:16:29.258Z,1.35
2022-12-22T04:19:29.001Z,1.5
2022-12-22T04:22:29.024Z,1.6
2022-12-22T04:25:29.002Z,1.25
2022-12-22T04:28:29.066Z,1.85
2022-12-22T04:31:29.111Z,1.85
2022-12-22T04:34:29.035Z,1.7
2022-12-22T04:37:29.001Z,1.7
2022-12-22T04:40:29.028Z,2.3
2022-12-22T04:43:29.048Z,1.35
2022-12-22T04:46:29.187Z,2.1
2022-12-22T04:49:29.071Z,1.65
2022-12-22T04:52:28.984Z,2.3
2022-12-22T04:55:29.159Z,1.7
2022-12-22T04:58:29.141Z,2.8
2022-12-22T05:01:29.335Z,1.35
2022-12-22T05:04:29.136Z,1.25
2022-12-22T05:07:29.151Z,1.9
2022-12-22T05:10:29.132Z,1.65
2022-12-22T05:13:29.124Z,2.1
2022-12-22T05:16:29.239Z,1.35
2022-12-22T05:19:31.937Z,1.05
2022-12-22T05:22:29.082Z,0.95
2022-12-22T05:25:35.486Z,2.3
2022-12-22T05:28:29.105Z,3.55
2022-12-22T05:31:29.145Z,2.75
2022-12-22T05:34:29.155Z,2
2022-12-22T05:37:29.102Z,1.85
2022-12-22T05:40:29.088Z,2.45
2022-12-22T05:43:29.158Z,0.85
2022-12-22T05:46:29.214Z,0.85
2022-12-22T05:49:29.182Z,1.85
2022-12-22T05:52:29.372Z,1.15
2022-12-22T05:55:29.100Z,2.15
2022-12-22T05:58:29.186Z,1.8
2022-12-22T06:01:29.245Z,1.45
2022-12-22T06:04:29.286Z,1.85
2022-12-22T06:07:29.257Z,2.15
2022-12-22T06:10:29.092Z,2.65
2022-12-22T06:13:29.281Z,1.5
2022-12-22T06:16:29.202Z,1.6
2022-12-22T06:19:29.229Z,2.35
2022-12-22T06:22:29.233Z,2.3
2022-12-22T06:25:29.240Z,1.75
2022-12-22T06:28:29.089Z,1.45
2022-12-22T06:31:29.334Z,0.95
2022-12-22T06:34:29.242Z,2.05
2022-12-22T06:37:29.263Z,1.95
2022-12-22T06:40:29.296Z,0.55
2022-12-22T06:43:29.151Z,1.85
2022-12-22T06:46:29.230Z,2.05
2022-12-22T06:49:29.184Z,1.1
2022-12-22T06:52:29.206Z,2.45
2022-12-22T06:55:29.215Z,0.9
2022-12-22T06:58:29.234Z,2.15
2022-12-22T07:01:29.520Z,1.8
2022-12-22T07:04:29.242Z,2.3
2022-12-22T07:07:29.199Z,2.25
2022-12-22T07:10:29.314Z,1.05
2022-12-22T07:13:29.092Z,1.7
2022-12-22T07:16:29.344Z,0.8
2022-12-22T07:19:29.166Z,1.5
2022-12-22T07:22:31.600Z,2
2022-12-22T07:25:29.202Z,1.2
2022-12-22T07:28:29.303Z,1.65
2022-12-22T07:31:29.258Z,1.5
2022-12-22T07:34:29.208Z,1.45
2022-12-22T07:37:29.272Z,1.65
2022-12-22T07:40:29.278Z,1.05
2022-12-22T07:43:29.226Z,1.35
2022-12-22T07:46:29.354Z,0.9
2022-12-22T07:49:29.297Z,2
2022-12-22T07:52:29.204Z,1.6
2022-12-22T07:55:29.268Z,1.7
2022-12-22T07:58:29.417Z,2.4
2022-12-22T08:01:29.581Z,2.5
2022-12-22T08:04:29.726Z,2
2022-12-22T08:07:29.289Z,1.25
2022-12-22T08:10:29.203Z,1.55
2022-12-22T08:13:29.341Z,1.8
2022-12-22T08:16:29.548Z,2.75
2022-12-22T08:19:29.315Z,1.6
2022-12-22T08:22:29.376Z,1.2
2022-12-22T08:25:29.212Z,1.8
2022-12-22T08:28:29.316Z,1.25
2022-12-22T08:31:29.357Z,2
2022-12-22T08:34:29.266Z,1.6
2022-12-22T08:37:29.254Z,0.8
2022-12-22T08:40:29.275Z,1.05
2022-12-22T08:43:29.265Z,1.55
2022-12-22T08:46:29.280Z,1.8
2022-12-22T08:49:29.395Z,3.2
2022-12-22T08:52:29.236Z,3.45
2022-12-22T08:55:29.297Z,2.3
2022-12-22T08:58:29.422Z,1.75
2022-12-22T09:01:29.525Z,2.25
2022-12-22T09:04:29.368Z,1.4
2022-12-22T09:07:29.304Z,0.8
2022-12-22T09:10:29.345Z,2
2022-12-22T09:13:29.369Z,1.55
2022-12-22T09:16:29.446Z,1
2022-12-22T09:19:29.375Z,1.7
2022-12-22T09:22:29.960Z,1.65
2022-12-22T09:25:29.301Z,2.4
2022-12-22T09:28:29.481Z,3.6
2022-12-22T09:31:29.307Z,1.7
2022-12-22T09:34:29.522Z,1.6
2022-12-22T09:37:29.296Z,1.65
2022-12-22T09:40:29.471Z,3.4
2022-12-22T09:43:29.361Z,2.8
2022-12-22T09:46:29.446Z,2.1
2022-12-22T09:49:29.520Z,2.75
2022-12-22T09:52:29.312Z,3.6
2022-12-22T09:55:29.265Z,2.45
2022-12-22T09:58:29.520Z,2.45
2022-12-22T10:01:29.536Z,1.8
2022-12-22T10:04:29.479Z,2.35
2022-12-22T10:07:29.565Z,1.85
2022-12-22T10:10:29.493Z,3.1
2022-12-22T10:13:29.520Z,2.3
2022-12-22T10:16:29.483Z,2.55
2022-12-22T10:19:29.411Z,2.65
2022-12-22T10:22:29.522Z,2.6
2022-12-22T10:28:29.424Z,1.4
2022-12-22T10:31:29.597Z,3.4
2022-12-22T10:34:29.638Z,2.65
2022-12-22T10:37:29.261Z,4.75
2022-12-22T10:40:29.355Z,2.2
2022-12-22T10:43:29.273Z,1.55
2022-12-22T10:46:29.537Z,3.4
2022-12-22T10:49:29.512Z,1.95
2022-12-22T10:52:33.148Z,1.55
2022-12-22T10:55:29.565Z,2
2022-12-22T10:58:29.395Z,1.65
2022-12-22T11:01:29.687Z,4.3
2022-12-22T11:04:29.370Z,3.6
2022-12-22T11:07:29.405Z,3.8
2022-12-22T11:10:29.545Z,2.3
2022-12-22T11:13:29.303Z,2.15
2022-12-22T11:16:29.881Z,2.75
2022-12-22T11:19:29.585Z,2.25
2022-12-22T11:22:29.494Z,1.85
2022-12-22T11:25:29.670Z,3.3
2022-12-22T11:28:29.494Z,5.3
2022-12-22T11:31:29.596Z,3.25
2022-12-22T11:34:29.365Z,3.05
2022-12-22T11:37:29.558Z,3.2
2022-12-22T11:40:29.464Z,1.9
2022-12-22T11:43:29.433Z,1.85
2022-12-22T11:46:29.672Z,3.05
2022-12-22T11:49:29.446Z,2.8
2022-12-22T11:52:29.489Z,2.8
2022-12-22T11:55:30.204Z,1.6
2022-12-22T11:58:29.582Z,3.15
2022-12-22T12:01:29.534Z,3.15
2022-12-22T12:04:29.611Z,2.7
2022-12-22T12:07:29.431Z,4.2
2022-12-22T12:10:29.545Z,2.75
2022-12-22T12:13:37.244Z,3.05
2022-12-22T12:16:29.539Z,2.65
2022-12-22T12:19:29.969Z,2.2
2022-12-22T12:22:29.550Z,3.05
2022-12-22T12:25:29.449Z,2.3
2022-12-22T12:28:29.554Z,2.75
2022-12-22T12:31:29.526Z,2.5
2022-12-22T12:34:29.643Z,2.85
2022-12-22T12:37:29.406Z,2.05
2022-12-22T12:40:29.421Z,3.2
2022-12-22T12:43:29.507Z,3
2022-12-22T12:46:29.671Z,4.95
2022-12-22T12:49:29.444Z,2.25
2022-12-22T12:52:29.461Z,2.3
2022-12-22T12:55:33.656Z,2.5
2022-12-22T12:58:29.566Z,3.15
2022-12-22T13:01:29.796Z,3.8
2022-12-22T13:04:32.614Z,2.6
2022-12-22T13:07:29.453Z,2.25
2022-12-22T13:10:30.909Z,2.55
2022-12-22T13:13:29.617Z,3.05
2022-12-22T13:16:29.710Z,2.8
2022-12-22T13:19:29.550Z,2.75
2022-12-22T13:22:29.524Z,2.35
2022-12-22T13:25:29.519Z,2.65
2022-12-22T13:28:29.557Z,2.3
2022-12-22T13:31:29.529Z,1.85
2022-12-22T13:34:29.589Z,3.2
2022-12-22T13:37:29.543Z,2.55
2022-12-22T13:40:29.536Z,3
2022-12-22T13:43:29.626Z,2.2
2022-12-22T13:46:29.609Z,2.85
2022-12-22T13:50:06.892Z,2.45
2022-12-22T13:52:29.515Z,2.7
2022-12-22T13:55:29.568Z,3.65
2022-12-22T13:58:29.550Z,2.2
2022-12-22T14:01:29.917Z,2.2
2022-12-22T14:04:29.949Z,2.35
2022-12-22T14:07:29.661Z,2.95
2022-12-22T14:10:29.601Z,2.15
2022-12-22T14:13:29.571Z,2.1
2022-12-22T14:16:29.683Z,2.05
2022-12-22T14:19:29.608Z,2.25
2022-12-22T14:22:29.640Z,2.4
2022-12-22T14:25:29.689Z,2.15
2022-12-22T14:28:29.576Z,1.45
2022-12-22T14:31:29.553Z,1.7
2022-12-22T14:34:29.567Z,2.1
2022-12-22T14:37:33.988Z,2.8
2022-12-22T14:40:29.640Z,1.85
2022-12-22T14:43:29.537Z,2.3
2022-12-22T14:46:38.773Z,2.35
2022-12-22T14:49:29.507Z,1.6
2022-12-22T14:52:29.612Z,2.3
2022-12-22T14:55:29.565Z,2.1
2022-12-22T14:58:29.589Z,2.85
2022-12-22T15:01:30.163Z,2.25
2022-12-22T15:04:29.614Z,2.05
2022-12-22T15:08:05.135Z,1.7
2022-12-22T15:10:29.572Z,1.15
2022-12-22T15:13:29.535Z,1.6
2022-12-22T15:16:29.774Z,3.25
2022-12-22T15:19:29.594Z,2.7
2022-12-22T15:22:29.583Z,2.5
2022-12-22T15:25:29.664Z,2.25
2022-12-22T15:28:29.660Z,2.95
2022-12-22T15:31:29.766Z,4
2022-12-22T15:34:29.670Z,2
2022-12-22T15:37:29.567Z,1.7
2022-12-22T15:40:29.720Z,1.95
2022-12-22T15:43:56.947Z,2
2022-12-22T15:46:29.759Z,1.85
2022-12-22T15:49:29.555Z,0.95
2022-12-22T15:52:29.555Z,2.2
2022-12-22T15:55:31.680Z,1.3
2022-12-22T15:58:29.706Z,1.45
2022-12-22T16:01:30.029Z,1.05
2022-12-22T16:04:32.589Z,1.6
2022-12-22T16:07:29.646Z,2.15
2022-12-22T16:10:29.672Z,2.4
2022-12-22T16:13:30.383Z,2.3
2022-12-22T16:16:29.969Z,1.45
2022-12-22T16:19:29.857Z,1
2022-12-22T16:22:29.687Z,1.4
2022-12-22T16:25:29.761Z,2.25
2022-12-22T16:28:29.768Z,2.3
2022-12-22T16:31:29.772Z,1.05
2022-12-22T16:34:29.688Z,1.6
2022-12-22T16:37:29.694Z,0.8
2022-12-22T16:40:29.738Z,2.3
2022-12-22T16:46:29.720Z,2.25
2022-12-22T16:49:29.677Z,2.25
2022-12-22T16:52:29.696Z,1.75
2022-12-22T16:55:29.753Z,1.2
2022-12-22T16:58:29.692Z,1.7
2022-12-22T17:01:30.015Z,1.2
2022-12-22T17:04:29.709Z,2.05
2022-12-22T17:07:29.590Z,3.1
2022-12-22T17:10:29.639Z,1.9
2022-12-22T17:13:29.913Z,3
2022-12-22T17:16:29.973Z,3.55
2022-12-22T17:19:29.746Z,1.25
2022-12-22T17:22:29.757Z,0.75
2022-12-22T17:25:30.849Z,1.85
2022-12-22T17:28:29.812Z,1.15
2022-12-22T17:31:29.954Z,1.85
2022-12-22T17:34:29.814Z,1.55
2022-12-22T17:37:29.757Z,2.5
2022-12-22T17:40:29.940Z,2
2022-12-22T17:43:29.676Z,1.5
2022-12-22T17:46:29.849Z,2.15
2022-12-22T17:49:29.809Z,1.95
2022-12-22T17:52:29.830Z,2.15
2022-12-22T17:56:06.922Z,0.95
2022-12-22T17:58:29.812Z,1.3
2022-12-22T18:01:30.210Z,1
2022-12-22T18:04:29.748Z,1
2022-12-22T18:07:29.854Z,0.85
2022-12-22T18:10:29.832Z,0.7
2022-12-22T18:13:29.798Z,0.5
2022-12-22T18:16:29.950Z,0.35
2022-12-22T18:19:29.813Z,0.35
2022-12-22T18:22:29.732Z,0.4
2022-12-22T18:25:29.785Z,1.2
2022-12-22T18:28:29.803Z,0.6
2022-12-22T18:31:29.889Z,1
2022-12-22T18:34:29.762Z,0.75
2022-12-22T18:37:29.855Z,0.45
2022-12-22T18:40:29.852Z,0.45
2022-12-22T18:43:29.742Z,1.05
2022-12-22T18:46:29.905Z,0.95
2022-12-22T18:49:29.867Z,1.6
2022-12-22T18:52:29.805Z,1.15
2022-12-22T18:55:29.889Z,0.65
2022-12-22T18:58:29.903Z,0.95
2022-12-22T19:01:30.334Z,0.6
2022-12-22T19:04:29.863Z,0.4
2022-12-22T19:07:29.742Z,0.2
2022-12-22T19:10:29.725Z,1.05
2022-12-22T19:13:29.813Z,0.95
2022-12-22T19:16:29.922Z,1
2022-12-22T19:19:29.795Z,1.2
2022-12-22T19:22:29.814Z,1
2022-12-22T19:25:29.709Z,0.95
2022-12-22T19:28:29.885Z,1.2
2022-12-22T19:31:30.172Z,0.7
2022-12-22T19:34:29.880Z,1.05
2022-12-22T19:37:29.911Z,0.9
2022-12-22T19:40:29.768Z,1
2022-12-22T19:43:29.893Z,1.05
2022-12-22T19:46:30.171Z,0.9
2022-12-22T19:49:29.966Z,0.95
2022-12-22T19:52:29.810Z,1.7
2022-12-22T19:55:29.751Z,0.8
2022-12-22T19:58:29.912Z,1.65
2022-12-22T20:01:30.235Z,1.6
2022-12-22T20:04:29.921Z,1.1
2022-12-22T20:07:29.869Z,1.25
2022-12-22T20:10:29.862Z,1.4
2022-12-22T20:13:29.949Z,1.25
2022-12-22T20:16:29.846Z,1.1
2022-12-22T20:19:29.852Z,1.45
2022-12-22T20:22:29.829Z,2.55
2022-12-22T20:25:29.838Z,0.9
2022-12-22T20:28:29.935Z,1.05
2022-12-22T20:31:29.993Z,0.9
2022-12-22T20:34:29.964Z,1.1
2022-12-22T20:37:29.859Z,0.45
2022-12-22T20:40:29.908Z,0.5
2022-12-22T20:43:29.987Z,0.75
2022-12-22T20:46:30.289Z,0.4
2022-12-22T20:49:29.989Z,0.9
2022-12-22T20:52:29.852Z,0.8
2022-12-22T20:55:29.936Z,2
2022-12-22T20:58:29.932Z,0.9
2022-12-22T21:01:30.305Z,1.6
2022-12-22T21:04:29.981Z,1.25
2022-12-22T21:07:30.012Z,0.9
2022-12-22T21:10:29.909Z,1
2022-12-22T21:13:29.861Z,0.85
2022-12-22T21:16:29.971Z,1.7
2022-12-22T21:19:30.012Z,1.15
2022-12-22T21:22:29.938Z,1.25
2022-12-22T21:25:29.923Z,1.75
2022-12-22T21:28:29.928Z,0.75
2022-12-22T21:31:30.061Z,1.55
2022-12-22T21:34:29.913Z,0.65
2022-12-22T21:37:29.944Z,0.95
2022-12-22T21:40:29.928Z,0.6
2022-12-22T21:43:30.061Z,0.6
2022-12-22T21:46:30.060Z,1.4
2022-12-22T21:49:30.053Z,0.95
2022-12-22T21:52:30.024Z,1.35
2022-12-22T21:55:29.913Z,0.55
2022-12-22T21:58:29.873Z,0.65
2022-12-22T22:01:30.300Z,0.45
2022-12-22T22:04:30.055Z,0.25
2022-12-22T22:07:30.000Z,0.6
2022-12-22T22:10:29.967Z,0.75
2022-12-22T22:13:30.048Z,1.05
2022-12-22T22:16:30.261Z,1.1
2022-12-22T22:19:29.920Z,1
2022-12-22T22:22:30.048Z,0.6
2022-12-22T22:25:30.057Z,0.45
2022-12-22T22:28:30.142Z,1.75
2022-12-22T22:31:30.118Z,1
2022-12-22T22:34:29.924Z,0.65
2022-12-22T22:37:29.968Z,0.5
2022-12-22T22:40:32.504Z,0.4
2022-12-22T22:43:30.109Z,1.3
2022-12-22T22:46:30.159Z,0.2
2022-12-22T22:49:30.089Z,0.6
2022-12-22T22:52:30.048Z,0.4
2022-12-22T22:55:30.044Z,0.5
2022-12-22T22:58:30.042Z,0.85
2022-12-22T23:01:30.182Z,0.55
2022-12-22T23:04:30.169Z,0.95
2022-12-22T23:07:30.015Z,0.35
2022-12-22T23:10:30.066Z,1.15
2022-12-22T23:13:29.991Z,1.55
2022-12-22T23:16:38.278Z,1.65
2022-12-22T23:19:30.057Z,1.4
2022-12-22T23:22:29.967Z,0.95
2022-12-22T23:25:29.999Z,0.85
2022-12-22T23:28:29.956Z,2.1
2022-12-22T23:31:30.196Z,2.25
2022-12-22T23:34:30.034Z,1.75
2022-12-22T23:37:30.056Z,2.2
2022-12-22T23:40:52.142Z,1.7
2022-12-22T23:43:30.047Z,2.9
2022-12-22T23:46:30.064Z,1.5
2022-12-22T23:49:30.121Z,1.4
2022-12-22T23:52:30.188Z,1.65
2022-12-22T23:55:30.098Z,1.15
2022-12-22T23:58:30.083Z,1.3
